If you wish to contribute or participate in the discussions about articles you are invited to join SKYbrary as a registered user

 Actions

Lavan Airport

From SKYbrary Wiki

OIBV
Airport
ICAO: OIBV – IATA: LVP
Summary
Name Lavan Airport
Region Middle East
Territory "Oi" is not in the list (AG, AN, AY, BG, BI, BK, C, CT, DA, DB, ...) of allowed values for the "ICAO Territory" property. Iran IR.gif
Location Lavan, Hormozgan Province
Serving Lavan Island
Elevation 23.165 m
76 ft23.165 m
Coordinates 26° 48' 39.00" N, 53° 21' 10.99" E
Runways
Designator Length Width Surface ROPS
11/29 2077 m6,814.304 ft
45 m147.638 ft
ASP /


METAR
Observation OIBV 230500Z 31023KT 9999 FEW030 27/16 Q1009
Station LAVAN ISLAND
Date/Time 23 April 2019 05:00:00
Wind direction 310°
Wind speed 23 kts
Lowest cloud amount few clouds
Temperature 27°C
Dew point 16°C
Humidity 51%
QNH 1009 hPa
Weather condition n/a

Airport located on Lavan Island in the Persian Gulf.

Climatology

Warm Desert climate (Köppen climate classification BWh).

Maps

Terrain

Loading map...

Airport Layout

Loading map...


Accidents & Serious Incidents at or in vicinity of OIBV

None on SKYbrary